sensor_id;sensor_type;location;lat;lon;timestamp;temperature;humidity
25504;DHT22;13410;52.114;5.718;2022-12-07T00:01:35;9.10;99.90
25504;DHT22;13410;52.114;5.718;2022-12-07T00:04:03;9.10;99.90
25504;DHT22;13410;52.114;5.718;2022-12-07T00:06:32;9.10;99.90
25504;DHT22;13410;52.114;5.718;2022-12-07T00:08:58;9.10;99.90
25504;DHT22;13410;52.114;5.718;2022-12-07T00:11:24;9.00;99.90
25504;DHT22;13410;52.114;5.718;2022-12-07T00:13:58;9.00;99.90
25504;DHT22;13410;52.114;5.718;2022-12-07T00:16:28;9.00;99.90
25504;DHT22;13410;52.114;5.718;2022-12-07T00:18:55;8.90;99.90
25504;DHT22;13410;52.114;5.718;2022-12-07T00:21:23;8.80;99.90
25504;DHT22;13410;52.114;5.718;2022-12-07T00:23:50;8.80;99.90
25504;DHT22;13410;52.114;5.718;2022-12-07T00:26:19;8.80;99.90
25504;DHT22;13410;52.114;5.718;2022-12-07T00:28:46;8.80;99.90
25504;DHT22;13410;52.114;5.718;2022-12-07T00:31:13;8.80;99.90
25504;DHT22;13410;52.114;5.718;2022-12-07T00:33:39;8.70;99.90
25504;DHT22;13410;52.114;5.718;2022-12-07T00:36:11;8.70;99.90
25504;DHT22;13410;52.114;5.718;2022-12-07T00:38:37;8.70;99.90
25504;DHT22;13410;52.114;5.718;2022-12-07T00:41:12;8.60;99.90
25504;DHT22;13410;52.114;5.718;2022-12-07T00:43:39;8.70;99.90
25504;DHT22;13410;52.114;5.718;2022-12-07T00:46:05;8.60;99.90
25504;DHT22;13410;52.114;5.718;2022-12-07T00:48:30;8.60;99.90
25504;DHT22;13410;52.114;5.718;2022-12-07T00:50:56;8.60;99.90
25504;DHT22;13410;52.114;5.718;2022-12-07T00:53:22;8.60;99.90
25504;DHT22;13410;52.114;5.718;2022-12-07T00:55:48;8.60;99.90
25504;DHT22;13410;52.114;5.718;2022-12-07T00:58:14;8.70;99.90
25504;DHT22;13410;52.114;5.718;2022-12-07T01:00:40;8.70;99.90
25504;DHT22;13410;52.114;5.718;2022-12-07T01:03:08;8.60;99.90
25504;DHT22;13410;52.114;5.718;2022-12-07T01:05:34;8.50;99.90
25504;DHT22;13410;52.114;5.718;2022-12-07T01:08:00;8.50;99.90
25504;DHT22;13410;52.114;5.718;2022-12-07T01:10:26;8.50;99.90
25504;DHT22;13410;52.114;5.718;2022-12-07T01:12:52;8.50;99.90
25504;DHT22;13410;52.114;5.718;2022-12-07T01:15:18;8.50;99.90
25504;DHT22;13410;52.114;5.718;2022-12-07T01:17:44;8.40;99.90
25504;DHT22;13410;52.114;5.718;2022-12-07T01:20:10;8.40;99.90
25504;DHT22;13410;52.114;5.718;2022-12-07T01:22:40;8.40;99.90
25504;DHT22;13410;52.114;5.718;2022-12-07T01:25:07;8.30;99.90
25504;DHT22;13410;52.114;5.718;2022-12-07T01:27:34;8.30;99.90
25504;DHT22;13410;52.114;5.718;2022-12-07T01:30:00;8.40;99.90
25504;DHT22;13410;52.114;5.718;2022-12-07T01:32:26;8.30;99.90
25504;DHT22;13410;52.114;5.718;2022-12-07T01:34:51;8.20;99.90
25504;DHT22;13410;52.114;5.718;2022-12-07T01:37:17;8.20;99.90
25504;DHT22;13410;52.114;5.718;2022-12-07T01:39:42;8.20;99.90
25504;DHT22;13410;52.114;5.718;2022-12-07T01:42:10;8.30;99.90
25504;DHT22;13410;52.114;5.718;2022-12-07T01:47:41;8.40;99.90
25504;DHT22;13410;52.114;5.718;2022-12-07T01:50:08;8.20;99.90
25504;DHT22;13410;52.114;5.718;2022-12-07T01:52:35;8.10;99.90
25504;DHT22;13410;52.114;5.718;2022-12-07T01:55:12;8.10;99.90
25504;DHT22;13410;52.114;5.718;2022-12-07T01:57:41;8.20;99.90
25504;DHT22;13410;52.114;5.718;2022-12-07T02:00:09;8.10;99.90
25504;DHT22;13410;52.114;5.718;2022-12-07T02:03:27;8.10;99.90
25504;DHT22;13410;52.114;5.718;2022-12-07T02:05:34;8.30;99.90
25504;DHT22;13410;52.114;5.718;2022-12-07T02:08:01;8.20;99.90
25504;DHT22;13410;52.114;5.718;2022-12-07T02:10:30;8.10;99.90
25504;DHT22;13410;52.114;5.718;2022-12-07T02:13:06;8.10;99.90
25504;DHT22;13410;52.114;5.718;2022-12-07T02:29:49;8.00;99.90
25504;DHT22;13410;52.114;5.718;2022-12-07T02:32:27;8.10;99.90
25504;DHT22;13410;52.114;5.718;2022-12-07T02:35:15;8.10;99.90
25504;DHT22;13410;52.114;5.718;2022-12-07T02:40:39;8.20;99.90
25504;DHT22;13410;52.114;5.718;2022-12-07T02:43:34;8.20;99.90
25504;DHT22;13410;52.114;5.718;2022-12-07T02:46:05;8.20;99.90
25504;DHT22;13410;52.114;5.718;2022-12-07T02:48:33;8.30;99.90
25504;DHT22;13410;52.114;5.718;2022-12-07T02:50:58;8.30;99.90
25504;DHT22;13410;52.114;5.718;2022-12-07T02:59:02;8.40;99.90
25504;DHT22;13410;52.114;5.718;2022-12-07T03:04:48;8.60;99.90
25504;DHT22;13410;52.114;5.718;2022-12-07T03:10:29;8.50;99.90
25504;DHT22;13410;52.114;5.718;2022-12-07T03:13:10;8.60;99.90
25504;DHT22;13410;52.114;5.718;2022-12-07T03:18:12;8.70;99.90
25504;DHT22;13410;52.114;5.718;2022-12-07T03:20:40;8.70;99.90
25504;DHT22;13410;52.114;5.718;2022-12-07T03:23:09;8.70;99.90
25504;DHT22;13410;52.114;5.718;2022-12-07T03:25:40;8.80;99.90
25504;DHT22;13410;52.114;5.718;2022-12-07T03:28:07;8.90;99.90
25504;DHT22;13410;52.114;5.718;2022-12-07T03:30:47;8.80;99.90
25504;DHT22;13410;52.114;5.718;2022-12-07T03:33:23;8.90;99.90
25504;DHT22;13410;52.114;5.718;2022-12-07T03:35:56;8.90;99.90
25504;DHT22;13410;52.114;5.718;2022-12-07T03:38:30;8.80;99.90
25504;DHT22;13410;52.114;5.718;2022-12-07T03:41:09;8.70;99.90
25504;DHT22;13410;52.114;5.718;2022-12-07T03:43:37;8.80;99.90
25504;DHT22;13410;52.114;5.718;2022-12-07T03:49:08;8.90;99.90
25504;DHT22;13410;52.114;5.718;2022-12-07T03:51:43;8.80;99.90
25504;DHT22;13410;52.114;5.718;2022-12-07T03:54:23;8.80;99.90
25504;DHT22;13410;52.114;5.718;2022-12-07T03:56:50;8.80;99.90
25504;DHT22;13410;52.114;5.718;2022-12-07T03:59:17;8.80;99.90
25504;DHT22;13410;52.114;5.718;2022-12-07T04:01:44;8.80;99.90
25504;DHT22;13410;52.114;5.718;2022-12-07T04:04:10;8.70;99.90
25504;DHT22;13410;52.114;5.718;2022-12-07T04:06:36;8.60;99.90
25504;DHT22;13410;52.114;5.718;2022-12-07T04:09:01;8.60;99.90
25504;DHT22;13410;52.114;5.718;2022-12-07T04:11:27;8.50;99.90
25504;DHT22;13410;52.114;5.718;2022-12-07T04:13:53;8.50;99.90
25504;DHT22;13410;52.114;5.718;2022-12-07T04:16:37;8.60;99.90
25504;DHT22;13410;52.114;5.718;2022-12-07T04:19:02;8.60;99.90
25504;DHT22;13410;52.114;5.718;2022-12-07T04:21:28;8.60;99.90
25504;DHT22;13410;52.114;5.718;2022-12-07T04:23:53;8.60;99.90
25504;DHT22;13410;52.114;5.718;2022-12-07T04:26:19;8.70;99.90
25504;DHT22;13410;52.114;5.718;2022-12-07T04:28:44;8.50;99.90
25504;DHT22;13410;52.114;5.718;2022-12-07T04:31:10;8.50;99.90
25504;DHT22;13410;52.114;5.718;2022-12-07T04:33:35;8.50;99.90
25504;DHT22;13410;52.114;5.718;2022-12-07T04:36:01;8.50;99.90
25504;DHT22;13410;52.114;5.718;2022-12-07T04:38:27;8.60;99.90
25504;DHT22;13410;52.114;5.718;2022-12-07T04:40:52;8.50;99.90
25504;DHT22;13410;52.114;5.718;2022-12-07T04:43:18;8.50;99.90
25504;DHT22;13410;52.114;5.718;2022-12-07T04:45:47;8.50;99.90
25504;DHT22;13410;52.114;5.718;2022-12-07T04:48:14;8.40;99.90
25504;DHT22;13410;52.114;5.718;2022-12-07T04:50:39;8.50;99.90
25504;DHT22;13410;52.114;5.718;2022-12-07T04:53:05;8.40;99.90
25504;DHT22;13410;52.114;5.718;2022-12-07T04:55:30;8.50;99.90
25504;DHT22;13410;52.114;5.718;2022-12-07T04:57:56;8.50;99.90
25504;DHT22;13410;52.114;5.718;2022-12-07T05:00:21;8.40;99.90
25504;DHT22;13410;52.114;5.718;2022-12-07T05:02:47;8.40;99.90
25504;DHT22;13410;52.114;5.718;2022-12-07T05:05:13;8.40;99.90
25504;DHT22;13410;52.114;5.718;2022-12-07T05:07:38;8.40;99.90
25504;DHT22;13410;52.114;5.718;2022-12-07T05:10:05;8.40;99.90
25504;DHT22;13410;52.114;5.718;2022-12-07T05:12:30;8.40;99.90
25504;DHT22;13410;52.114;5.718;2022-12-07T05:14:56;8.40;99.90
25504;DHT22;13410;52.114;5.718;2022-12-07T05:17:21;8.40;99.90
25504;DHT22;13410;52.114;5.718;2022-12-07T05:19:47;8.50;99.90
25504;DHT22;13410;52.114;5.718;2022-12-07T05:22:13;8.60;99.90
25504;DHT22;13410;52.114;5.718;2022-12-07T05:24:39;8.60;99.90
25504;DHT22;13410;52.114;5.718;2022-12-07T05:27:05;8.60;99.90
25504;DHT22;13410;52.114;5.718;2022-12-07T05:29:30;8.60;99.90
25504;DHT22;13410;52.114;5.718;2022-12-07T05:31:56;8.50;99.90
25504;DHT22;13410;52.114;5.718;2022-12-07T05:34:21;8.60;99.90
25504;DHT22;13410;52.114;5.718;2022-12-07T05:36:47;8.60;99.90
25504;DHT22;13410;52.114;5.718;2022-12-07T05:39:12;8.60;99.90
25504;DHT22;13410;52.114;5.718;2022-12-07T05:41:38;8.60;99.90
25504;DHT22;13410;52.114;5.718;2022-12-07T05:44:22;8.60;99.90
25504;DHT22;13410;52.114;5.718;2022-12-07T05:46:48;8.50;99.90
25504;DHT22;13410;52.114;5.718;2022-12-07T05:49:13;8.50;99.90
25504;DHT22;13410;52.114;5.718;2022-12-07T05:51:39;8.40;99.90
25504;DHT22;13410;52.114;5.718;2022-12-07T05:54:05;8.40;99.90
25504;DHT22;13410;52.114;5.718;2022-12-07T05:56:30;8.30;99.90
25504;DHT22;13410;52.114;5.718;2022-12-07T05:58:56;8.40;99.90
25504;DHT22;13410;52.114;5.718;2022-12-07T06:01:40;8.20;99.90
25504;DHT22;13410;52.114;5.718;2022-12-07T06:04:06;8.30;99.90
25504;DHT22;13410;52.114;5.718;2022-12-07T06:06:31;8.30;99.90
25504;DHT22;13410;52.114;5.718;2022-12-07T06:08:57;8.20;99.90
25504;DHT22;13410;52.114;5.718;2022-12-07T06:11:22;8.30;99.90
25504;DHT22;13410;52.114;5.718;2022-12-07T06:14:06;8.10;99.90
25504;DHT22;13410;52.114;5.718;2022-12-07T06:16:31;8.10;99.90
25504;DHT22;13410;52.114;5.718;2022-12-07T06:18:57;8.10;99.90
25504;DHT22;13410;52.114;5.718;2022-12-07T06:21:23;8.10;99.90
25504;DHT22;13410;52.114;5.718;2022-12-07T06:23:50;8.10;99.90
25504;DHT22;13410;52.114;5.718;2022-12-07T06:26:16;8.10;99.90
25504;DHT22;13410;52.114;5.718;2022-12-07T06:28:42;8.00;99.90
25504;DHT22;13410;52.114;5.718;2022-12-07T06:31:07;8.00;99.90
25504;DHT22;13410;52.114;5.718;2022-12-07T06:33:33;8.10;99.90
25504;DHT22;13410;52.114;5.718;2022-12-07T06:35:58;8.10;99.90
25504;DHT22;13410;52.114;5.718;2022-12-07T06:38:24;8.10;99.90
25504;DHT22;13410;52.114;5.718;2022-12-07T06:40:50;8.20;99.90
25504;DHT22;13410;52.114;5.718;2022-12-07T06:43:15;8.20;99.90
25504;DHT22;13410;52.114;5.718;2022-12-07T06:45:41;8.30;99.90
25504;DHT22;13410;52.114;5.718;2022-12-07T06:48:07;8.30;99.90
25504;DHT22;13410;52.114;5.718;2022-12-07T06:50:32;8.30;99.90
25504;DHT22;13410;52.114;5.718;2022-12-07T06:52:58;8.20;99.90
25504;DHT22;13410;52.114;5.718;2022-12-07T06:55:24;8.20;99.90
25504;DHT22;13410;52.114;5.718;2022-12-07T06:57:49;8.30;99.90
25504;DHT22;13410;52.114;5.718;2022-12-07T07:00:15;8.20;99.90
25504;DHT22;13410;52.114;5.718;2022-12-07T07:02:41;8.20;99.90
25504;DHT22;13410;52.114;5.718;2022-12-07T07:05:07;8.30;99.90
25504;DHT22;13410;52.114;5.718;2022-12-07T07:07:32;8.10;99.90
25504;DHT22;13410;52.114;5.718;2022-12-07T07:09:58;8.10;99.90
25504;DHT22;13410;52.114;5.718;2022-12-07T07:12:24;8.10;99.90
25504;DHT22;13410;52.114;5.718;2022-12-07T07:14:49;8.10;99.90
25504;DHT22;13410;52.114;5.718;2022-12-07T07:17:15;8.00;99.90
25504;DHT22;13410;52.114;5.718;2022-12-07T07:19:40;8.00;99.90
25504;DHT22;13410;52.114;5.718;2022-12-07T07:22:06;8.00;99.90
25504;DHT22;13410;52.114;5.718;2022-12-07T07:24:31;8.00;99.90
25504;DHT22;13410;52.114;5.718;2022-12-07T07:26:57;8.00;99.90
25504;DHT22;13410;52.114;5.718;2022-12-07T07:29:23;8.00;99.90
25504;DHT22;13410;52.114;5.718;2022-12-07T07:31:49;8.00;99.90
25504;DHT22;13410;52.114;5.718;2022-12-07T07:34:14;8.00;99.90
25504;DHT22;13410;52.114;5.718;2022-12-07T07:36:40;8.00;99.90
25504;DHT22;13410;52.114;5.718;2022-12-07T07:39:06;8.00;99.90
25504;DHT22;13410;52.114;5.718;2022-12-07T07:41:31;7.90;99.90
25504;DHT22;13410;52.114;5.718;2022-12-07T07:43:57;7.90;99.90
25504;DHT22;13410;52.114;5.718;2022-12-07T07:46:23;8.00;99.90
25504;DHT22;13410;52.114;5.718;2022-12-07T07:48:48;8.00;99.90
25504;DHT22;13410;52.114;5.718;2022-12-07T07:51:14;7.90;99.90
25504;DHT22;13410;52.114;5.718;2022-12-07T07:53:40;8.00;99.90
25504;DHT22;13410;52.114;5.718;2022-12-07T07:56:05;8.10;99.90
25504;DHT22;13410;52.114;5.718;2022-12-07T07:58:31;8.20;99.90
25504;DHT22;13410;52.114;5.718;2022-12-07T08:00:56;8.30;99.90
25504;DHT22;13410;52.114;5.718;2022-12-07T08:03:22;8.30;99.90
25504;DHT22;13410;52.114;5.718;2022-12-07T08:05:47;8.40;99.90
25504;DHT22;13410;52.114;5.718;2022-12-07T08:08:13;8.50;99.90
25504;DHT22;13410;52.114;5.718;2022-12-07T08:10:38;8.60;99.90
25504;DHT22;13410;52.114;5.718;2022-12-07T08:13:04;8.70;99.90
25504;DHT22;13410;52.114;5.718;2022-12-07T08:15:47;8.70;99.90
25504;DHT22;13410;52.114;5.718;2022-12-07T08:18:18;8.80;99.90
25504;DHT22;13410;52.114;5.718;2022-12-07T08:20:44;8.60;99.90
25504;DHT22;13410;52.114;5.718;2022-12-07T08:23:10;8.70;99.90
25504;DHT22;13410;52.114;5.718;2022-12-07T08:25:39;8.70;99.90
25504;DHT22;13410;52.114;5.718;2022-12-07T08:28:04;8.80;99.90
25504;DHT22;13410;52.114;5.718;2022-12-07T08:30:30;8.90;99.90
25504;DHT22;13410;52.114;5.718;2022-12-07T08:32:56;8.90;99.90
25504;DHT22;13410;52.114;5.718;2022-12-07T08:35:23;9.00;99.90
25504;DHT22;13410;52.114;5.718;2022-12-07T08:37:48;9.10;99.90
25504;DHT22;13410;52.114;5.718;2022-12-07T08:40:14;9.10;99.90
25504;DHT22;13410;52.114;5.718;2022-12-07T08:42:44;9.10;99.90
25504;DHT22;13410;52.114;5.718;2022-12-07T08:45:12;9.20;99.90
25504;DHT22;13410;52.114;5.718;2022-12-07T08:47:43;9.30;99.90
25504;DHT22;13410;52.114;5.718;2022-12-07T08:50:11;9.30;99.90
25504;DHT22;13410;52.114;5.718;2022-12-07T08:52:37;9.30;99.90
25504;DHT22;13410;52.114;5.718;2022-12-07T08:55:05;9.30;99.90
25504;DHT22;13410;52.114;5.718;2022-12-07T08:57:32;9.40;99.90
25504;DHT22;13410;52.114;5.718;2022-12-07T08:59:59;9.50;99.90
25504;DHT22;13410;52.114;5.718;2022-12-07T09:02:25;9.50;99.90
25504;DHT22;13410;52.114;5.718;2022-12-07T09:04:51;9.60;99.90
25504;DHT22;13410;52.114;5.718;2022-12-07T09:07:16;9.80;99.90
25504;DHT22;13410;52.114;5.718;2022-12-07T09:09:42;9.80;99.90
25504;DHT22;13410;52.114;5.718;2022-12-07T09:12:08;9.80;99.90
25504;DHT22;13410;52.114;5.718;2022-12-07T09:14:33;9.80;99.90
25504;DHT22;13410;52.114;5.718;2022-12-07T09:17:11;9.70;99.90
25504;DHT22;13410;52.114;5.718;2022-12-07T09:19:38;9.60;99.90
25504;DHT22;13410;52.114;5.718;2022-12-07T09:22:04;9.60;99.90
25504;DHT22;13410;52.114;5.718;2022-12-07T09:24:30;9.60;99.90
25504;DHT22;13410;52.114;5.718;2022-12-07T09:26:57;9.50;99.90
25504;DHT22;13410;52.114;5.718;2022-12-07T09:29:23;9.50;99.90
25504;DHT22;13410;52.114;5.718;2022-12-07T09:31:48;9.50;99.90
25504;DHT22;13410;52.114;5.718;2022-12-07T09:34:16;9.60;99.90
25504;DHT22;13410;52.114;5.718;2022-12-07T09:36:41;9.50;99.90
25504;DHT22;13410;52.114;5.718;2022-12-07T09:39:08;9.60;99.90
25504;DHT22;13410;52.114;5.718;2022-12-07T09:41:41;9.50;99.90
25504;DHT22;13410;52.114;5.718;2022-12-07T09:44:12;9.40;99.90
25504;DHT22;13410;52.114;5.718;2022-12-07T09:46:42;9.50;99.90
25504;DHT22;13410;52.114;5.718;2022-12-07T09:49:22;9.70;99.90
25504;DHT22;13410;52.114;5.718;2022-12-07T09:52:03;9.70;99.90
25504;DHT22;13410;52.114;5.718;2022-12-07T09:54:46;9.70;99.90
25504;DHT22;13410;52.114;5.718;2022-12-07T09:57:12;9.80;99.90
25504;DHT22;13410;52.114;5.718;2022-12-07T09:59:38;9.90;99.90
25504;DHT22;13410;52.114;5.718;2022-12-07T10:02:35;9.90;99.90
25504;DHT22;13410;52.114;5.718;2022-12-07T10:05:01;9.90;99.90
25504;DHT22;13410;52.114;5.718;2022-12-07T10:07:29;9.90;99.90
25504;DHT22;13410;52.114;5.718;2022-12-07T10:09:55;9.80;99.90
25504;DHT22;13410;52.114;5.718;2022-12-07T10:12:20;9.80;99.90
25504;DHT22;13410;52.114;5.718;2022-12-07T10:15:12;9.70;99.90
25504;DHT22;13410;52.114;5.718;2022-12-07T10:17:41;9.80;99.90
25504;DHT22;13410;52.114;5.718;2022-12-07T10:23:02;10.00;99.90
25504;DHT22;13410;52.114;5.718;2022-12-07T10:25:32;10.10;99.90
25504;DHT22;13410;52.114;5.718;2022-12-07T10:28:10;10.00;99.90
25504;DHT22;13410;52.114;5.718;2022-12-07T10:30:54;10.10;99.90
25504;DHT22;13410;52.114;5.718;2022-12-07T10:33:38;10.30;99.90
25504;DHT22;13410;52.114;5.718;2022-12-07T10:36:20;10.10;99.90
25504;DHT22;13410;52.114;5.718;2022-12-07T10:38:51;10.20;99.90
25504;DHT22;13410;52.114;5.718;2022-12-07T10:41:17;10.20;99.90
25504;DHT22;13410;52.114;5.718;2022-12-07T10:43:49;10.20;99.90
25504;DHT22;13410;52.114;5.718;2022-12-07T10:51:41;10.30;99.90
25504;DHT22;13410;52.114;5.718;2022-12-07T10:57:22;10.30;99.90
25504;DHT22;13410;52.114;5.718;2022-12-07T11:08:00;10.70;99.90
25504;DHT22;13410;52.114;5.718;2022-12-07T11:10:54;10.80;99.90
25504;DHT22;13410;52.114;5.718;2022-12-07T11:13:29;10.70;99.90
25504;DHT22;13410;52.114;5.718;2022-12-07T11:16:16;10.70;99.90
25504;DHT22;13410;52.114;5.718;2022-12-07T11:21:43;10.90;99.90
25504;DHT22;13410;52.114;5.718;2022-12-07T11:24:18;10.80;99.90
25504;DHT22;13410;52.114;5.718;2022-12-07T11:32:43;11.10;99.90
25504;DHT22;13410;52.114;5.718;2022-12-07T11:35:15;11.00;99.90
25504;DHT22;13410;52.114;5.718;2022-12-07T11:37:45;11.30;99.90
25504;DHT22;13410;52.114;5.718;2022-12-07T11:40:31;11.50;99.90
25504;DHT22;13410;52.114;5.718;2022-12-07T11:43:39;11.70;99.90
25504;DHT22;13410;52.114;5.718;2022-12-07T11:46:07;11.60;99.90
25504;DHT22;13410;52.114;5.718;2022-12-07T11:48:52;11.80;99.90
25504;DHT22;13410;52.114;5.718;2022-12-07T11:51:21;12.00;99.90
25504;DHT22;13410;52.114;5.718;2022-12-07T11:53:58;12.20;99.90
25504;DHT22;13410;52.114;5.718;2022-12-07T11:56:26;12.40;99.90
25504;DHT22;13410;52.114;5.718;2022-12-07T12:06:40;12.90;99.90
25504;DHT22;13410;52.114;5.718;2022-12-07T12:09:16;13.10;99.90
25504;DHT22;13410;52.114;5.718;2022-12-07T12:17:05;13.00;99.90
25504;DHT22;13410;52.114;5.718;2022-12-07T12:22:41;12.30;99.90
25504;DHT22;13410;52.114;5.718;2022-12-07T12:25:58;12.10;99.90
25504;DHT22;13410;52.114;5.718;2022-12-07T12:27:58;12.10;99.90
25504;DHT22;13410;52.114;5.718;2022-12-07T12:32:50;12.10;99.90
25504;DHT22;13410;52.114;5.718;2022-12-07T12:35:35;11.90;99.90
25504;DHT22;13410;52.114;5.718;2022-12-07T12:38:32;11.70;99.90
25504;DHT22;13410;52.114;5.718;2022-12-07T12:41:01;11.90;99.90
25504;DHT22;13410;52.114;5.718;2022-12-07T12:43:41;12.00;99.90
25504;DHT22;13410;52.114;5.718;2022-12-07T12:51:47;12.40;99.90
25504;DHT22;13410;52.114;5.718;2022-12-07T12:54:28;12.60;99.90
25504;DHT22;13410;52.114;5.718;2022-12-07T12:57:13;12.80;99.90
25504;DHT22;13410;52.114;5.718;2022-12-07T12:59:59;12.90;99.90
25504;DHT22;13410;52.114;5.718;2022-12-07T13:02:38;12.90;99.90
25504;DHT22;13410;52.114;5.718;2022-12-07T13:29:13;12.30;99.90
25504;DHT22;13410;52.114;5.718;2022-12-07T13:31:49;11.80;99.90
25504;DHT22;13410;52.114;5.718;2022-12-07T13:34:42;11.30;99.90
25504;DHT22;13410;52.114;5.718;2022-12-07T13:37:27;10.90;99.90
25504;DHT22;13410;52.114;5.718;2022-12-07T13:39:59;10.50;99.90
25504;DHT22;13410;52.114;5.718;2022-12-07T13:44:51;9.70;99.90
25504;DHT22;13410;52.114;5.718;2022-12-07T13:47:42;9.80;99.90
25504;DHT22;13410;52.114;5.718;2022-12-07T13:50:30;10.10;99.90
25504;DHT22;13410;52.114;5.718;2022-12-07T13:52:58;10.40;99.90
25504;DHT22;13410;52.114;5.718;2022-12-07T13:55:24;10.70;99.90
25504;DHT22;13410;52.114;5.718;2022-12-07T13:58:04;11.00;99.90
25504;DHT22;13410;52.114;5.718;2022-12-07T14:03:35;11.30;99.90
25504;DHT22;13410;52.114;5.718;2022-12-07T14:06:11;11.30;99.90
25504;DHT22;13410;52.114;5.718;2022-12-07T14:12:49;11.50;99.90
25504;DHT22;13410;52.114;5.718;2022-12-07T14:15:21;11.50;99.90
25504;DHT22;13410;52.114;5.718;2022-12-07T14:17:51;11.60;99.90
25504;DHT22;13410;52.114;5.718;2022-12-07T14:22:56;11.80;99.90
25504;DHT22;13410;52.114;5.718;2022-12-07T14:25:26;11.90;99.90
25504;DHT22;13410;52.114;5.718;2022-12-07T14:27:54;11.90;99.90
25504;DHT22;13410;52.114;5.718;2022-12-07T14:30:22;11.80;99.90
25504;DHT22;13410;52.114;5.718;2022-12-07T14:32:58;11.70;99.90
25504;DHT22;13410;52.114;5.718;2022-12-07T14:35:24;11.60;99.90
25504;DHT22;13410;52.114;5.718;2022-12-07T14:37:50;11.60;99.90
25504;DHT22;13410;52.114;5.718;2022-12-07T14:40:19;11.70;99.90
25504;DHT22;13410;52.114;5.718;2022-12-07T14:42:47;11.60;99.90
25504;DHT22;13410;52.114;5.718;2022-12-07T14:45:16;11.50;99.90
25504;DHT22;13410;52.114;5.718;2022-12-07T14:47:43;11.50;99.90
25504;DHT22;13410;52.114;5.718;2022-12-07T14:50:12;11.60;99.90
25504;DHT22;13410;52.114;5.718;2022-12-07T14:52:39;11.50;99.90
25504;DHT22;13410;52.114;5.718;2022-12-07T14:55:13;11.40;99.90
25504;DHT22;13410;52.114;5.718;2022-12-07T14:57:39;11.40;99.90
25504;DHT22;13410;52.114;5.718;2022-12-07T15:00:05;11.30;99.90
25504;DHT22;13410;52.114;5.718;2022-12-07T15:02:31;11.30;99.90
25504;DHT22;13410;52.114;5.718;2022-12-07T15:04:56;11.30;99.90
25504;DHT22;13410;52.114;5.718;2022-12-07T15:07:22;11.30;99.90
25504;DHT22;13410;52.114;5.718;2022-12-07T15:09:49;11.30;99.90
25504;DHT22;13410;52.114;5.718;2022-12-07T15:12:14;11.30;99.90
25504;DHT22;13410;52.114;5.718;2022-12-07T15:14:40;11.30;99.90
25504;DHT22;13410;52.114;5.718;2022-12-07T15:17:06;11.30;99.90
25504;DHT22;13410;52.114;5.718;2022-12-07T15:19:32;11.20;99.90
25504;DHT22;13410;52.114;5.718;2022-12-07T15:21:58;11.30;99.90
25504;DHT22;13410;52.114;5.718;2022-12-07T15:24:25;11.20;99.90
25504;DHT22;13410;52.114;5.718;2022-12-07T15:26:51;11.20;99.90
25504;DHT22;13410;52.114;5.718;2022-12-07T15:29:17;11.20;99.90
25504;DHT22;13410;52.114;5.718;2022-12-07T15:31:43;11.40;99.90
25504;DHT22;13410;52.114;5.718;2022-12-07T15:34:09;11.30;99.90
25504;DHT22;13410;52.114;5.718;2022-12-07T15:36:35;11.10;99.90
25504;DHT22;13410;52.114;5.718;2022-12-07T15:39:01;11.00;99.90
25504;DHT22;13410;52.114;5.718;2022-12-07T15:41:27;11.10;99.90
25504;DHT22;13410;52.114;5.718;2022-12-07T15:43:52;11.20;99.90
25504;DHT22;13410;52.114;5.718;2022-12-07T15:46:40;11.00;99.90
25504;DHT22;13410;52.114;5.718;2022-12-07T15:49:12;11.00;99.90
25504;DHT22;13410;52.114;5.718;2022-12-07T15:51:38;11.10;99.90
25504;DHT22;13410;52.114;5.718;2022-12-07T15:54:04;11.00;99.90
25504;DHT22;13410;52.114;5.718;2022-12-07T15:56:30;10.80;99.90
25504;DHT22;13410;52.114;5.718;2022-12-07T15:58:56;10.80;99.90
25504;DHT22;13410;52.114;5.718;2022-12-07T16:01:22;10.60;99.90
25504;DHT22;13410;52.114;5.718;2022-12-07T16:03:48;10.60;99.90
25504;DHT22;13410;52.114;5.718;2022-12-07T16:06:18;10.60;99.90
25504;DHT22;13410;52.114;5.718;2022-12-07T16:08:45;10.60;99.90
25504;DHT22;13410;52.114;5.718;2022-12-07T16:11:12;10.50;99.90
25504;DHT22;13410;52.114;5.718;2022-12-07T16:13:38;10.50;99.90
25504;DHT22;13410;52.114;5.718;2022-12-07T16:16:13;10.50;99.90
25504;DHT22;13410;52.114;5.718;2022-12-07T16:18:39;10.40;99.90
25504;DHT22;13410;52.114;5.718;2022-12-07T16:21:05;10.20;99.90
25504;DHT22;13410;52.114;5.718;2022-12-07T16:23:31;10.20;99.90
25504;DHT22;13410;52.114;5.718;2022-12-07T16:26:08;10.40;99.90
25504;DHT22;13410;52.114;5.718;2022-12-07T16:28:34;10.30;99.90
25504;DHT22;13410;52.114;5.718;2022-12-07T16:31:12;10.50;99.90
25504;DHT22;13410;52.114;5.718;2022-12-07T16:33:39;10.50;99.90
25504;DHT22;13410;52.114;5.718;2022-12-07T16:36:06;10.40;99.90
25504;DHT22;13410;52.114;5.718;2022-12-07T16:38:32;10.40;99.90
25504;DHT22;13410;52.114;5.718;2022-12-07T16:41:01;10.50;99.90
25504;DHT22;13410;52.114;5.718;2022-12-07T16:43:27;10.50;99.90
25504;DHT22;13410;52.114;5.718;2022-12-07T16:45:53;10.50;99.90
25504;DHT22;13410;52.114;5.718;2022-12-07T16:48:18;10.40;99.90
25504;DHT22;13410;52.114;5.718;2022-12-07T16:50:45;10.40;99.90
25504;DHT22;13410;52.114;5.718;2022-12-07T16:53:13;10.50;99.90
25504;DHT22;13410;52.114;5.718;2022-12-07T16:55:43;10.40;99.90
25504;DHT22;13410;52.114;5.718;2022-12-07T16:58:09;10.50;99.90
25504;DHT22;13410;52.114;5.718;2022-12-07T17:00:36;10.40;99.90
25504;DHT22;13410;52.114;5.718;2022-12-07T17:03:02;10.40;99.90
25504;DHT22;13410;52.114;5.718;2022-12-07T17:05:28;10.50;99.90
25504;DHT22;13410;52.114;5.718;2022-12-07T17:07:55;10.40;99.90
25504;DHT22;13410;52.114;5.718;2022-12-07T17:10:21;10.30;99.90
25504;DHT22;13410;52.114;5.718;2022-12-07T17:12:46;10.30;99.90
25504;DHT22;13410;52.114;5.718;2022-12-07T17:15:12;10.30;99.90
25504;DHT22;13410;52.114;5.718;2022-12-07T17:17:52;10.30;99.90
25504;DHT22;13410;52.114;5.718;2022-12-07T17:20:19;10.30;99.90
25504;DHT22;13410;52.114;5.718;2022-12-07T17:22:45;10.30;99.90
25504;DHT22;13410;52.114;5.718;2022-12-07T17:25:11;10.20;99.90
25504;DHT22;13410;52.114;5.718;2022-12-07T17:27:36;10.00;99.90
25504;DHT22;13410;52.114;5.718;2022-12-07T17:30:06;10.10;99.90
25504;DHT22;13410;52.114;5.718;2022-12-07T17:32:32;10.10;99.90
25504;DHT22;13410;52.114;5.718;2022-12-07T17:34:58;10.10;99.90
25504;DHT22;13410;52.114;5.718;2022-12-07T17:37:23;10.20;99.90
25504;DHT22;13410;52.114;5.718;2022-12-07T17:39:49;10.00;99.90
25504;DHT22;13410;52.114;5.718;2022-12-07T17:42:15;10.10;99.90
25504;DHT22;13410;52.114;5.718;2022-12-07T17:44:59;10.10;99.90
25504;DHT22;13410;52.114;5.718;2022-12-07T17:47:24;10.10;99.90
25504;DHT22;13410;52.114;5.718;2022-12-07T17:49:50;10.00;99.90
25504;DHT22;13410;52.114;5.718;2022-12-07T17:52:15;9.90;99.90
25504;DHT22;13410;52.114;5.718;2022-12-07T17:55:00;9.80;99.90
25504;DHT22;13410;52.114;5.718;2022-12-07T17:57:25;9.90;99.90
25504;DHT22;13410;52.114;5.718;2022-12-07T17:59:51;9.80;99.90